sensor_id;sensor_type;location;lat;lon;timestamp;temperature;humidity
36552;DHT22;22559;54.176;12.102;2023-10-08T00:01:36;12.60;99.90
36552;DHT22;22559;54.176;12.102;2023-10-08T00:04:08;12.60;99.90
36552;DHT22;22559;54.176;12.102;2023-10-08T00:06:34;12.50;99.90
36552;DHT22;22559;54.176;12.102;2023-10-08T00:09:00;12.50;99.90
36552;DHT22;22559;54.176;12.102;2023-10-08T00:11:27;12.50;99.90
36552;DHT22;22559;54.176;12.102;2023-10-08T00:13:56;12.50;99.90
36552;DHT22;22559;54.176;12.102;2023-10-08T00:16:22;12.60;99.90
36552;DHT22;22559;54.176;12.102;2023-10-08T00:18:48;12.50;99.90
36552;DHT22;22559;54.176;12.102;2023-10-08T00:21:18;12.50;99.90
36552;DHT22;22559;54.176;12.102;2023-10-08T00:23:52;12.50;99.90
36552;DHT22;22559;54.176;12.102;2023-10-08T00:26:21;12.50;99.90
36552;DHT22;22559;54.176;12.102;2023-10-08T00:29:05;12.50;99.90
36552;DHT22;22559;54.176;12.102;2023-10-08T00:31:45;12.60;99.90
36552;DHT22;22559;54.176;12.102;2023-10-08T00:34:12;12.60;99.90
36552;DHT22;22559;54.176;12.102;2023-10-08T00:36:44;12.50;99.90
36552;DHT22;22559;54.176;12.102;2023-10-08T00:39:12;12.50;99.90
36552;DHT22;22559;54.176;12.102;2023-10-08T00:41:46;12.60;99.90
36552;DHT22;22559;54.176;12.102;2023-10-08T00:44:13;12.60;99.90
36552;DHT22;22559;54.176;12.102;2023-10-08T00:46:42;12.60;99.90
36552;DHT22;22559;54.176;12.102;2023-10-08T00:49:13;12.60;99.90
36552;DHT22;22559;54.176;12.102;2023-10-08T00:51:51;12.50;99.90
36552;DHT22;22559;54.176;12.102;2023-10-08T00:54:27;12.50;99.90
36552;DHT22;22559;54.176;12.102;2023-10-08T00:56:54;12.40;99.90
36552;DHT22;22559;54.176;12.102;2023-10-08T00:59:24;12.40;99.90
36552;DHT22;22559;54.176;12.102;2023-10-08T01:01:51;12.50;99.90
36552;DHT22;22559;54.176;12.102;2023-10-08T01:04:20;12.50;99.90
36552;DHT22;22559;54.176;12.102;2023-10-08T01:06:53;12.40;99.90
36552;DHT22;22559;54.176;12.102;2023-10-08T01:09:27;12.50;99.90
36552;DHT22;22559;54.176;12.102;2023-10-08T01:12:19;12.40;99.90
36552;DHT22;22559;54.176;12.102;2023-10-08T01:14:54;12.40;99.90
36552;DHT22;22559;54.176;12.102;2023-10-08T01:17:21;12.40;99.90
36552;DHT22;22559;54.176;12.102;2023-10-08T01:19:51;12.30;99.90
36552;DHT22;22559;54.176;12.102;2023-10-08T01:22:30;12.20;99.90
36552;DHT22;22559;54.176;12.102;2023-10-08T01:24:56;12.10;99.90
36552;DHT22;22559;54.176;12.102;2023-10-08T01:27:23;12.10;99.90
36552;DHT22;22559;54.176;12.102;2023-10-08T01:29:53;12.10;99.90
36552;DHT22;22559;54.176;12.102;2023-10-08T01:32:20;12.00;99.90
36552;DHT22;22559;54.176;12.102;2023-10-08T01:34:49;12.10;99.90
36552;DHT22;22559;54.176;12.102;2023-10-08T01:37:16;12.10;99.90
36552;DHT22;22559;54.176;12.102;2023-10-08T01:39:45;12.10;99.90
36552;DHT22;22559;54.176;12.102;2023-10-08T01:42:12;12.10;99.90
36552;DHT22;22559;54.176;12.102;2023-10-08T01:44:47;12.10;99.90
36552;DHT22;22559;54.176;12.102;2023-10-08T01:47:15;12.10;99.90
36552;DHT22;22559;54.176;12.102;2023-10-08T01:49:44;12.10;99.90
36552;DHT22;22559;54.176;12.102;2023-10-08T01:52:11;12.00;99.90
36552;DHT22;22559;54.176;12.102;2023-10-08T01:54:44;12.10;99.90
36552;DHT22;22559;54.176;12.102;2023-10-08T01:57:10;12.10;99.90
36552;DHT22;22559;54.176;12.102;2023-10-08T01:59:36;12.10;99.90
36552;DHT22;22559;54.176;12.102;2023-10-08T02:02:03;12.10;99.90
36552;DHT22;22559;54.176;12.102;2023-10-08T02:04:34;12.00;99.90
36552;DHT22;22559;54.176;12.102;2023-10-08T02:07:03;12.00;99.90
36552;DHT22;22559;54.176;12.102;2023-10-08T02:09:38;12.00;99.90
36552;DHT22;22559;54.176;12.102;2023-10-08T02:12:04;11.90;99.90
36552;DHT22;22559;54.176;12.102;2023-10-08T02:14:30;11.90;99.90
36552;DHT22;22559;54.176;12.102;2023-10-08T02:16:58;11.90;99.90
36552;DHT22;22559;54.176;12.102;2023-10-08T02:19:27;11.90;99.90
36552;DHT22;22559;54.176;12.102;2023-10-08T02:21:56;11.80;99.90
36552;DHT22;22559;54.176;12.102;2023-10-08T02:24:23;11.80;99.90
36552;DHT22;22559;54.176;12.102;2023-10-08T02:26:52;11.60;99.90
36552;DHT22;22559;54.176;12.102;2023-10-08T02:29:20;11.40;99.90
36552;DHT22;22559;54.176;12.102;2023-10-08T02:31:47;11.20;99.90
36552;DHT22;22559;54.176;12.102;2023-10-08T02:34:13;11.10;99.90
36552;DHT22;22559;54.176;12.102;2023-10-08T02:36:40;10.90;99.90
36552;DHT22;22559;54.176;12.102;2023-10-08T02:39:07;10.80;99.90
36552;DHT22;22559;54.176;12.102;2023-10-08T02:41:53;10.70;99.90
36552;DHT22;22559;54.176;12.102;2023-10-08T02:44:22;10.60;99.90
36552;DHT22;22559;54.176;12.102;2023-10-08T02:46:49;10.50;99.90
36552;DHT22;22559;54.176;12.102;2023-10-08T02:49:16;10.40;99.90
36552;DHT22;22559;54.176;12.102;2023-10-08T02:51:53;10.30;99.90
36552;DHT22;22559;54.176;12.102;2023-10-08T02:54:20;10.20;99.90
36552;DHT22;22559;54.176;12.102;2023-10-08T02:56:50;10.20;99.90
36552;DHT22;22559;54.176;12.102;2023-10-08T02:59:30;10.10;99.90
36552;DHT22;22559;54.176;12.102;2023-10-08T03:02:05;10.00;99.90
36552;DHT22;22559;54.176;12.102;2023-10-08T03:04:42;10.00;99.90
36552;DHT22;22559;54.176;12.102;2023-10-08T03:07:14;10.00;99.90
36552;DHT22;22559;54.176;12.102;2023-10-08T03:09:58;10.00;99.90
36552;DHT22;22559;54.176;12.102;2023-10-08T03:12:43;10.00;99.90
36552;DHT22;22559;54.176;12.102;2023-10-08T03:15:09;10.00;99.90
36552;DHT22;22559;54.176;12.102;2023-10-08T03:17:53;9.90;99.90
36552;DHT22;22559;54.176;12.102;2023-10-08T03:20:20;9.90;99.90
36552;DHT22;22559;54.176;12.102;2023-10-08T03:23:16;9.80;99.90
36552;DHT22;22559;54.176;12.102;2023-10-08T03:25:58;9.70;99.90
36552;DHT22;22559;54.176;12.102;2023-10-08T03:28:26;9.60;99.90
36552;DHT22;22559;54.176;12.102;2023-10-08T03:30:54;9.60;99.90
36552;DHT22;22559;54.176;12.102;2023-10-08T03:33:35;9.60;99.90
36552;DHT22;22559;54.176;12.102;2023-10-08T03:36:03;9.60;99.90
36552;DHT22;22559;54.176;12.102;2023-10-08T03:38:36;9.60;99.90
36552;DHT22;22559;54.176;12.102;2023-10-08T03:41:25;9.50;99.90
36552;DHT22;22559;54.176;12.102;2023-10-08T03:43:54;9.50;99.90
36552;DHT22;22559;54.176;12.102;2023-10-08T03:46:39;9.50;99.90
36552;DHT22;22559;54.176;12.102;2023-10-08T03:49:15;9.50;99.90
36552;DHT22;22559;54.176;12.102;2023-10-08T03:52:01;9.50;99.90
36552;DHT22;22559;54.176;12.102;2023-10-08T03:54:27;9.60;99.90
36552;DHT22;22559;54.176;12.102;2023-10-08T03:56:59;9.80;99.90
36552;DHT22;22559;54.176;12.102;2023-10-08T03:59:26;10.00;99.90
36552;DHT22;22559;54.176;12.102;2023-10-08T04:01:55;10.10;99.90
36552;DHT22;22559;54.176;12.102;2023-10-08T04:04:25;10.10;99.90
36552;DHT22;22559;54.176;12.102;2023-10-08T04:07:24;10.20;99.90
36552;DHT22;22559;54.176;12.102;2023-10-08T04:09:59;10.20;99.90
36552;DHT22;22559;54.176;12.102;2023-10-08T04:12:34;10.30;99.90
36552;DHT22;22559;54.176;12.102;2023-10-08T04:15:01;10.30;99.90
36552;DHT22;22559;54.176;12.102;2023-10-08T04:17:33;10.20;99.90
36552;DHT22;22559;54.176;12.102;2023-10-08T04:20:13;10.10;99.90
36552;DHT22;22559;54.176;12.102;2023-10-08T04:23:02;10.00;99.90
36552;DHT22;22559;54.176;12.102;2023-10-08T04:25:29;9.90;99.90
36552;DHT22;22559;54.176;12.102;2023-10-08T04:27:55;10.00;99.90
36552;DHT22;22559;54.176;12.102;2023-10-08T04:30:27;10.00;99.90
36552;DHT22;22559;54.176;12.102;2023-10-08T04:33:00;10.20;99.90
36552;DHT22;22559;54.176;12.102;2023-10-08T04:35:35;10.40;99.90
36552;DHT22;22559;54.176;12.102;2023-10-08T04:38:23;10.50;99.90
36552;DHT22;22559;54.176;12.102;2023-10-08T04:40:51;10.60;99.90
36552;DHT22;22559;54.176;12.102;2023-10-08T04:43:20;10.70;99.90
36552;DHT22;22559;54.176;12.102;2023-10-08T04:46:00;10.80;99.90
36552;DHT22;22559;54.176;12.102;2023-10-08T04:48:52;10.90;99.90
36552;DHT22;22559;54.176;12.102;2023-10-08T04:51:18;11.10;99.90
36552;DHT22;22559;54.176;12.102;2023-10-08T04:53:47;11.10;99.90
36552;DHT22;22559;54.176;12.102;2023-10-08T04:56:14;11.10;99.90
36552;DHT22;22559;54.176;12.102;2023-10-08T04:58:43;11.20;99.90
36552;DHT22;22559;54.176;12.102;2023-10-08T05:01:13;11.20;99.90
36552;DHT22;22559;54.176;12.102;2023-10-08T05:03:55;11.20;99.90
36552;DHT22;22559;54.176;12.102;2023-10-08T05:06:27;11.20;99.90
36552;DHT22;22559;54.176;12.102;2023-10-08T05:09:13;11.20;99.90
36552;DHT22;22559;54.176;12.102;2023-10-08T05:11:45;11.20;99.90
36552;DHT22;22559;54.176;12.102;2023-10-08T05:14:24;11.10;99.90
36552;DHT22;22559;54.176;12.102;2023-10-08T05:17:05;11.20;99.90
36552;DHT22;22559;54.176;12.102;2023-10-08T05:19:44;11.10;99.90
36552;DHT22;22559;54.176;12.102;2023-10-08T05:22:41;11.00;99.90
36552;DHT22;22559;54.176;12.102;2023-10-08T05:25:10;11.00;99.90
36552;DHT22;22559;54.176;12.102;2023-10-08T05:27:45;11.00;99.90
36552;DHT22;22559;54.176;12.102;2023-10-08T05:32:59;10.90;99.90
36552;DHT22;22559;54.176;12.102;2023-10-08T05:35:35;10.90;99.90
36552;DHT22;22559;54.176;12.102;2023-10-08T05:38:07;10.90;99.90
36552;DHT22;22559;54.176;12.102;2023-10-08T05:40:48;10.80;99.90
36552;DHT22;22559;54.176;12.102;2023-10-08T05:43:35;10.70;99.90
36552;DHT22;22559;54.176;12.102;2023-10-08T05:46:12;10.70;99.90
36552;DHT22;22559;54.176;12.102;2023-10-08T05:49:07;10.70;99.90
36552;DHT22;22559;54.176;12.102;2023-10-08T05:51:34;10.60;99.90
36552;DHT22;22559;54.176;12.102;2023-10-08T05:54:32;10.50;99.90
36552;DHT22;22559;54.176;12.102;2023-10-08T05:57:03;10.50;99.90
36552;DHT22;22559;54.176;12.102;2023-10-08T05:59:39;10.60;99.90
36552;DHT22;22559;54.176;12.102;2023-10-08T06:02:27;10.60;99.90
36552;DHT22;22559;54.176;12.102;2023-10-08T06:04:54;10.70;99.90
36552;DHT22;22559;54.176;12.102;2023-10-08T06:10:30;10.50;99.90
36552;DHT22;22559;54.176;12.102;2023-10-08T06:12:59;10.40;99.90
36552;DHT22;22559;54.176;12.102;2023-10-08T06:15:50;10.60;99.90
36552;DHT22;22559;54.176;12.102;2023-10-08T06:18:23;10.70;99.90
36552;DHT22;22559;54.176;12.102;2023-10-08T06:20:53;10.80;99.90
36552;DHT22;22559;54.176;12.102;2023-10-08T06:23:25;10.80;99.90
36552;DHT22;22559;54.176;12.102;2023-10-08T06:25:52;10.80;99.90
36552;DHT22;22559;54.176;12.102;2023-10-08T06:28:31;10.90;99.90
36552;DHT22;22559;54.176;12.102;2023-10-08T06:31:00;11.10;99.90
36552;DHT22;22559;54.176;12.102;2023-10-08T06:33:27;11.20;99.90
36552;DHT22;22559;54.176;12.102;2023-10-08T06:35:59;11.30;99.90
36552;DHT22;22559;54.176;12.102;2023-10-08T06:38:34;11.40;99.90
36552;DHT22;22559;54.176;12.102;2023-10-08T06:41:02;11.50;99.90
36552;DHT22;22559;54.176;12.102;2023-10-08T06:43:41;11.50;99.90
36552;DHT22;22559;54.176;12.102;2023-10-08T06:46:12;11.40;99.90
36552;DHT22;22559;54.176;12.102;2023-10-08T06:48:38;11.40;99.90
36552;DHT22;22559;54.176;12.102;2023-10-08T06:51:09;11.40;99.90
36552;DHT22;22559;54.176;12.102;2023-10-08T06:53:42;11.40;99.90
36552;DHT22;22559;54.176;12.102;2023-10-08T06:56:13;11.50;99.90
36552;DHT22;22559;54.176;12.102;2023-10-08T06:58:41;11.50;99.90
36552;DHT22;22559;54.176;12.102;2023-10-08T07:01:16;11.50;99.90
36552;DHT22;22559;54.176;12.102;2023-10-08T07:03:51;11.60;99.90
36552;DHT22;22559;54.176;12.102;2023-10-08T07:06:17;11.60;99.90
36552;DHT22;22559;54.176;12.102;2023-10-08T07:08:57;11.70;99.90
36552;DHT22;22559;54.176;12.102;2023-10-08T07:11:26;11.70;99.90
36552;DHT22;22559;54.176;12.102;2023-10-08T07:13:54;11.70;99.90
36552;DHT22;22559;54.176;12.102;2023-10-08T07:16:21;11.80;99.90
36552;DHT22;22559;54.176;12.102;2023-10-08T07:18:47;12.00;99.90
36552;DHT22;22559;54.176;12.102;2023-10-08T07:21:27;12.10;99.90
36552;DHT22;22559;54.176;12.102;2023-10-08T07:24:05;12.20;99.90
36552;DHT22;22559;54.176;12.102;2023-10-08T07:26:35;12.30;99.90
36552;DHT22;22559;54.176;12.102;2023-10-08T07:29:05;12.30;99.90
36552;DHT22;22559;54.176;12.102;2023-10-08T07:31:38;12.40;99.90
36552;DHT22;22559;54.176;12.102;2023-10-08T07:34:07;12.40;99.90
36552;DHT22;22559;54.176;12.102;2023-10-08T07:36:44;12.60;99.90
36552;DHT22;22559;54.176;12.102;2023-10-08T07:39:10;12.60;99.90
36552;DHT22;22559;54.176;12.102;2023-10-08T07:41:55;12.70;99.90
36552;DHT22;22559;54.176;12.102;2023-10-08T07:44:22;12.80;99.90
36552;DHT22;22559;54.176;12.102;2023-10-08T07:46:52;12.80;99.90
36552;DHT22;22559;54.176;12.102;2023-10-08T07:49:20;12.80;99.90
36552;DHT22;22559;54.176;12.102;2023-10-08T07:51:45;12.90;99.90
36552;DHT22;22559;54.176;12.102;2023-10-08T07:54:26;13.00;99.90
36552;DHT22;22559;54.176;12.102;2023-10-08T07:56:55;13.10;99.90
36552;DHT22;22559;54.176;12.102;2023-10-08T07:59:38;13.20;99.90
36552;DHT22;22559;54.176;12.102;2023-10-08T08:02:08;13.30;99.90
36552;DHT22;22559;54.176;12.102;2023-10-08T08:04:38;13.30;99.90
36552;DHT22;22559;54.176;12.102;2023-10-08T08:07:06;13.20;99.90
36552;DHT22;22559;54.176;12.102;2023-10-08T08:09:31;13.30;99.90
36552;DHT22;22559;54.176;12.102;2023-10-08T08:12:06;13.50;99.90
36552;DHT22;22559;54.176;12.102;2023-10-08T08:14:39;13.90;99.90
36552;DHT22;22559;54.176;12.102;2023-10-08T08:17:07;13.90;99.90
36552;DHT22;22559;54.176;12.102;2023-10-08T08:19:42;14.00;99.90
36552;DHT22;22559;54.176;12.102;2023-10-08T08:22:19;14.10;99.90
36552;DHT22;22559;54.176;12.102;2023-10-08T08:24:52;14.70;99.90
36552;DHT22;22559;54.176;12.102;2023-10-08T08:27:20;15.50;99.90
36552;DHT22;22559;54.176;12.102;2023-10-08T08:29:57;16.30;99.90
36552;DHT22;22559;54.176;12.102;2023-10-08T08:32:35;17.30;99.90
36552;DHT22;22559;54.176;12.102;2023-10-08T08:35:08;18.00;99.90
36552;DHT22;22559;54.176;12.102;2023-10-08T08:37:34;18.20;99.90
36552;DHT22;22559;54.176;12.102;2023-10-08T08:40:10;18.40;99.90
36552;DHT22;22559;54.176;12.102;2023-10-08T08:42:48;18.50;99.90
36552;DHT22;22559;54.176;12.102;2023-10-08T08:45:19;19.00;99.90
36552;DHT22;22559;54.176;12.102;2023-10-08T08:47:46;19.80;99.90
36552;DHT22;22559;54.176;12.102;2023-10-08T08:50:12;20.30;99.90
36552;DHT22;22559;54.176;12.102;2023-10-08T08:52:39;20.10;99.90
36552;DHT22;22559;54.176;12.102;2023-10-08T08:55:06;19.60;99.90
36552;DHT22;22559;54.176;12.102;2023-10-08T08:57:43;19.30;99.90
36552;DHT22;22559;54.176;12.102;2023-10-08T09:00:12;18.60;99.90
36552;DHT22;22559;54.176;12.102;2023-10-08T09:02:39;18.10;99.90
36552;DHT22;22559;54.176;12.102;2023-10-08T09:05:05;17.30;99.90
36552;DHT22;22559;54.176;12.102;2023-10-08T09:07:58;17.00;99.90
36552;DHT22;22559;54.176;12.102;2023-10-08T09:10:25;16.60;99.90
36552;DHT22;22559;54.176;12.102;2023-10-08T09:12:53;16.00;99.90
36552;DHT22;22559;54.176;12.102;2023-10-08T09:15:20;15.50;99.90
36552;DHT22;22559;54.176;12.102;2023-10-08T09:17:48;15.10;99.90
36552;DHT22;22559;54.176;12.102;2023-10-08T09:20:15;14.70;99.90
36552;DHT22;22559;54.176;12.102;2023-10-08T09:22:40;14.50;99.90
36552;DHT22;22559;54.176;12.102;2023-10-08T09:25:07;14.20;99.90
36552;DHT22;22559;54.176;12.102;2023-10-08T09:27:33;14.00;99.90
36552;DHT22;22559;54.176;12.102;2023-10-08T09:29:59;13.90;99.90
36552;DHT22;22559;54.176;12.102;2023-10-08T09:32:33;13.70;99.90
36552;DHT22;22559;54.176;12.102;2023-10-08T09:35:00;13.70;99.90
36552;DHT22;22559;54.176;12.102;2023-10-08T09:37:25;14.10;99.90
36552;DHT22;22559;54.176;12.102;2023-10-08T09:39:52;14.70;99.90
36552;DHT22;22559;54.176;12.102;2023-10-08T09:42:19;15.70;99.90
36552;DHT22;22559;54.176;12.102;2023-10-08T09:44:48;16.50;99.90
36552;DHT22;22559;54.176;12.102;2023-10-08T09:47:20;17.40;99.90
36552;DHT22;22559;54.176;12.102;2023-10-08T09:49:56;18.20;99.90
36552;DHT22;22559;54.176;12.102;2023-10-08T09:52:26;18.90;99.90
36552;DHT22;22559;54.176;12.102;2023-10-08T09:55:00;19.40;99.90
36552;DHT22;22559;54.176;12.102;2023-10-08T09:57:29;19.50;99.90
36552;DHT22;22559;54.176;12.102;2023-10-08T09:59:54;19.50;99.90
36552;DHT22;22559;54.176;12.102;2023-10-08T10:02:23;19.80;99.90
36552;DHT22;22559;54.176;12.102;2023-10-08T10:04:53;19.60;99.90
36552;DHT22;22559;54.176;12.102;2023-10-08T10:07:20;19.30;99.90
36552;DHT22;22559;54.176;12.102;2023-10-08T10:09:54;19.20;99.90
36552;DHT22;22559;54.176;12.102;2023-10-08T10:12:24;19.30;99.90
36552;DHT22;22559;54.176;12.102;2023-10-08T10:14:53;18.90;99.90
36552;DHT22;22559;54.176;12.102;2023-10-08T10:17:22;18.60;99.90
36552;DHT22;22559;54.176;12.102;2023-10-08T10:20:01;18.00;99.90
36552;DHT22;22559;54.176;12.102;2023-10-08T10:22:32;17.80;99.90
36552;DHT22;22559;54.176;12.102;2023-10-08T10:24:58;17.60;99.90
36552;DHT22;22559;54.176;12.102;2023-10-08T10:27:29;17.60;99.90
36552;DHT22;22559;54.176;12.102;2023-10-08T10:30:02;17.20;99.90
36552;DHT22;22559;54.176;12.102;2023-10-08T10:32:36;17.10;99.90
36552;DHT22;22559;54.176;12.102;2023-10-08T10:35:02;17.60;99.90
36552;DHT22;22559;54.176;12.102;2023-10-08T10:37:32;17.80;99.90
36552;DHT22;22559;54.176;12.102;2023-10-08T10:40:07;18.00;99.90
36552;DHT22;22559;54.176;12.102;2023-10-08T10:42:38;18.10;99.90
36552;DHT22;22559;54.176;12.102;2023-10-08T10:45:17;18.30;99.90
36552;DHT22;22559;54.176;12.102;2023-10-08T10:48:02;18.20;99.90
36552;DHT22;22559;54.176;12.102;2023-10-08T10:50:51;17.90;99.90
36552;DHT22;22559;54.176;12.102;2023-10-08T10:56:12;19.40;99.90
36552;DHT22;22559;54.176;12.102;2023-10-08T10:58:45;20.10;99.90
36552;DHT22;22559;54.176;12.102;2023-10-08T11:01:12;20.90;99.90
36552;DHT22;22559;54.176;12.102;2023-10-08T11:03:52;21.60;99.90
36552;DHT22;22559;54.176;12.102;2023-10-08T11:06:22;22.30;99.90
36552;DHT22;22559;54.176;12.102;2023-10-08T11:08:52;22.60;99.90
36552;DHT22;22559;54.176;12.102;2023-10-08T11:11:19;22.70;99.90
36552;DHT22;22559;54.176;12.102;2023-10-08T11:13:59;22.50;99.90
36552;DHT22;22559;54.176;12.102;2023-10-08T11:16:28;22.30;99.90
36552;DHT22;22559;54.176;12.102;2023-10-08T11:18:57;22.60;99.90
36552;DHT22;22559;54.176;12.102;2023-10-08T11:21:31;22.40;99.90
36552;DHT22;22559;54.176;12.102;2023-10-08T11:23:59;22.10;99.90
36552;DHT22;22559;54.176;12.102;2023-10-08T11:26:26;21.90;99.90
36552;DHT22;22559;54.176;12.102;2023-10-08T11:29:06;21.70;99.90
36552;DHT22;22559;54.176;12.102;2023-10-08T11:31:40;20.70;99.90
36552;DHT22;22559;54.176;12.102;2023-10-08T11:34:06;20.40;99.90
36552;DHT22;22559;54.176;12.102;2023-10-08T11:36:36;20.60;99.90
36552;DHT22;22559;54.176;12.102;2023-10-08T11:39:14;21.10;99.90
36552;DHT22;22559;54.176;12.102;2023-10-08T11:42:00;21.00;99.90
36552;DHT22;22559;54.176;12.102;2023-10-08T11:44:32;20.60;99.90
36552;DHT22;22559;54.176;12.102;2023-10-08T11:47:02;21.00;99.90
36552;DHT22;22559;54.176;12.102;2023-10-08T11:49:39;21.20;99.90
36552;DHT22;22559;54.176;12.102;2023-10-08T11:52:12;20.90;99.90
36552;DHT22;22559;54.176;12.102;2023-10-08T11:54:41;20.90;99.90
36552;DHT22;22559;54.176;12.102;2023-10-08T11:57:07;21.10;99.90
36552;DHT22;22559;54.176;12.102;2023-10-08T11:59:35;21.30;99.90
36552;DHT22;22559;54.176;12.102;2023-10-08T12:02:08;21.60;99.90
36552;DHT22;22559;54.176;12.102;2023-10-08T12:04:33;21.70;99.90
36552;DHT22;22559;54.176;12.102;2023-10-08T12:07:01;21.40;99.90
36552;DHT22;22559;54.176;12.102;2023-10-08T12:09:32;21.40;99.90
36552;DHT22;22559;54.176;12.102;2023-10-08T12:12:04;21.60;99.90
36552;DHT22;22559;54.176;12.102;2023-10-08T12:14:37;21.50;99.90
36552;DHT22;22559;54.176;12.102;2023-10-08T12:17:04;21.60;99.90
36552;DHT22;22559;54.176;12.102;2023-10-08T12:19:37;21.40;99.90
36552;DHT22;22559;54.176;12.102;2023-10-08T12:22:05;21.10;99.90
36552;DHT22;22559;54.176;12.102;2023-10-08T12:24:33;20.60;99.90
36552;DHT22;22559;54.176;12.102;2023-10-08T12:26:59;20.50;99.90
36552;DHT22;22559;54.176;12.102;2023-10-08T12:29:24;20.20;99.90
36552;DHT22;22559;54.176;12.102;2023-10-08T12:31:51;20.40;99.90
36552;DHT22;22559;54.176;12.102;2023-10-08T12:34:18;20.70;99.90
36552;DHT22;22559;54.176;12.102;2023-10-08T12:36:44;21.00;99.90
36552;DHT22;22559;54.176;12.102;2023-10-08T12:39:13;21.40;99.90
36552;DHT22;22559;54.176;12.102;2023-10-08T12:41:42;21.50;99.90
36552;DHT22;22559;54.176;12.102;2023-10-08T12:44:09;21.70;99.90
36552;DHT22;22559;54.176;12.102;2023-10-08T12:46:35;21.80;99.90
36552;DHT22;22559;54.176;12.102;2023-10-08T12:49:01;21.30;99.90
36552;DHT22;22559;54.176;12.102;2023-10-08T12:51:28;20.70;99.90
36552;DHT22;22559;54.176;12.102;2023-10-08T12:53:58;20.50;99.90
36552;DHT22;22559;54.176;12.102;2023-10-08T12:56:32;20.50;99.90
36552;DHT22;22559;54.176;12.102;2023-10-08T12:59:04;20.70;99.90
36552;DHT22;22559;54.176;12.102;2023-10-08T13:01:35;20.40;99.90
36552;DHT22;22559;54.176;12.102;2023-10-08T13:04:02;20.40;99.90
36552;DHT22;22559;54.176;12.102;2023-10-08T13:06:36;19.90;99.90
36552;DHT22;22559;54.176;12.102;2023-10-08T13:09:05;19.50;99.90
36552;DHT22;22559;54.176;12.102;2023-10-08T13:11:40;18.90;99.90
36552;DHT22;22559;54.176;12.102;2023-10-08T13:14:05;18.50;99.90
36552;DHT22;22559;54.176;12.102;2023-10-08T13:16:31;18.00;99.90
36552;DHT22;22559;54.176;12.102;2023-10-08T13:19:00;17.70;99.90
36552;DHT22;22559;54.176;12.102;2023-10-08T13:21:26;17.40;99.90
36552;DHT22;22559;54.176;12.102;2023-10-08T13:23:54;17.40;99.90
36552;DHT22;22559;54.176;12.102;2023-10-08T13:26:22;17.40;99.90
36552;DHT22;22559;54.176;12.102;2023-10-08T13:28:50;17.10;99.90
36552;DHT22;22559;54.176;12.102;2023-10-08T13:31:16;17.10;99.90
36552;DHT22;22559;54.176;12.102;2023-10-08T13:33:44;17.00;99.90
36552;DHT22;22559;54.176;12.102;2023-10-08T13:36:15;16.70;99.90
36552;DHT22;22559;54.176;12.102;2023-10-08T13:38:41;16.70;99.90
36552;DHT22;22559;54.176;12.102;2023-10-08T13:41:07;16.80;99.90
36552;DHT22;22559;54.176;12.102;2023-10-08T13:43:47;16.50;99.90
36552;DHT22;22559;54.176;12.102;2023-10-08T13:46:18;16.50;99.90
36552;DHT22;22559;54.176;12.102;2023-10-08T13:48:45;16.40;99.90
36552;DHT22;22559;54.176;12.102;2023-10-08T13:51:14;16.40;99.90
36552;DHT22;22559;54.176;12.102;2023-10-08T13:53:41;16.10;99.90
36552;DHT22;22559;54.176;12.102;2023-10-08T13:56:10;15.90;99.90
36552;DHT22;22559;54.176;12.102;2023-10-08T13:58:37;15.80;99.90
36552;DHT22;22559;54.176;12.102;2023-10-08T14:01:12;15.50;99.90
36552;DHT22;22559;54.176;12.102;2023-10-08T14:03:50;15.50;99.90
36552;DHT22;22559;54.176;12.102;2023-10-08T14:06:20;15.40;99.90
36552;DHT22;22559;54.176;12.102;2023-10-08T14:08:47;15.40;99.90
36552;DHT22;22559;54.176;12.102;2023-10-08T14:11:23;15.40;99.90
36552;DHT22;22559;54.176;12.102;2023-10-08T14:13:52;15.40;99.90
36552;DHT22;22559;54.176;12.102;2023-10-08T14:16:19;15.20;99.90
36552;DHT22;22559;54.176;12.102;2023-10-08T14:18:50;14.80;99.90
36552;DHT22;22559;54.176;12.102;2023-10-08T14:21:22;14.80;99.90
36552;DHT22;22559;54.176;12.102;2023-10-08T14:26:22;14.70;99.90
36552;DHT22;22559;54.176;12.102;2023-10-08T14:28:49;14.50;99.90
36552;DHT22;22559;54.176;12.102;2023-10-08T14:31:24;14.60;99.90
36552;DHT22;22559;54.176;12.102;2023-10-08T14:33:50;14.40;99.90
36552;DHT22;22559;54.176;12.102;2023-10-08T14:36:34;14.40;99.90
36552;DHT22;22559;54.176;12.102;2023-10-08T14:39:18;14.50;99.90
36552;DHT22;22559;54.176;12.102;2023-10-08T14:42:03;14.40;99.90
36552;DHT22;22559;54.176;12.102;2023-10-08T14:44:48;14.40;99.90
36552;DHT22;22559;54.176;12.102;2023-10-08T14:47:16;14.30;99.90
36552;DHT22;22559;54.176;12.102;2023-10-08T14:49:42;14.20;99.90
36552;DHT22;22559;54.176;12.102;2023-10-08T14:52:09;14.10;99.90
36552;DHT22;22559;54.176;12.102;2023-10-08T14:54:34;14.00;99.90
36552;DHT22;22559;54.176;12.102;2023-10-08T14:57:00;13.90;99.90
36552;DHT22;22559;54.176;12.102;2023-10-08T14:59:28;13.90;99.90
36552;DHT22;22559;54.176;12.102;2023-10-08T15:01:54;13.90;99.90
36552;DHT22;22559;54.176;12.102;2023-10-08T15:04:21;13.80;99.90
36552;DHT22;22559;54.176;12.102;2023-10-08T15:06:47;13.70;99.90
36552;DHT22;22559;54.176;12.102;2023-10-08T15:09:13;13.70;99.90
36552;DHT22;22559;54.176;12.102;2023-10-08T15:11:47;13.60;99.90
36552;DHT22;22559;54.176;12.102;2023-10-08T15:14:13;13.50;99.90
36552;DHT22;22559;54.176;12.102;2023-10-08T15:16:41;13.50;99.90
36552;DHT22;22559;54.176;12.102;2023-10-08T15:19:09;13.50;99.90
36552;DHT22;22559;54.176;12.102;2023-10-08T15:21:38;13.50;99.90
36552;DHT22;22559;54.176;12.102;2023-10-08T15:24:05;13.40;99.90
36552;DHT22;22559;54.176;12.102;2023-10-08T15:26:36;13.30;99.90
36552;DHT22;22559;54.176;12.102;2023-10-08T15:29:02;13.20;99.90
36552;DHT22;22559;54.176;12.102;2023-10-08T15:31:28;13.20;99.90
36552;DHT22;22559;54.176;12.102;2023-10-08T15:33:54;13.20;99.90
36552;DHT22;22559;54.176;12.102;2023-10-08T15:36:20;13.20;99.90
36552;DHT22;22559;54.176;12.102;2023-10-08T15:38:46;13.00;99.90
36552;DHT22;22559;54.176;12.102;2023-10-08T15:41:12;13.00;99.90
36552;DHT22;22559;54.176;12.102;2023-10-08T15:43:39;13.10;99.90
36552;DHT22;22559;54.176;12.102;2023-10-08T15:46:05;13.00;99.90
36552;DHT22;22559;54.176;12.102;2023-10-08T15:48:31;12.90;99.90
36552;DHT22;22559;54.176;12.102;2023-10-08T15:50:59;12.80;99.90
36552;DHT22;22559;54.176;12.102;2023-10-08T15:53:25;12.80;99.90
36552;DHT22;22559;54.176;12.102;2023-10-08T15:55:51;12.70;99.90